Ramey, Pennsylvania
Current Conditions -  °F | °C
As of 5:54 AM on Thursday 27 Nov 2014 (Local Time) from KFIG Reporting Station
Overcast Overcast  
Wind Chill: 30°   Ceiling: 2900
Heat Index: 30°   Visibility: 9mi
Dew Point: 28°   Wind: 3mph
Humidity: 92%   Direction: 350°N
Pressure: 29.96"   Gusts: NA
Location:  40.8°N, 78.4°W
Report Text: KFIG 271054Z AUTO 35003KT 9SM FEW018 BKN029 OVC035 M01/M02 A2996 RMK AO2 SLP160 T10111022
Loading
Personal Weather Stations






























Interactive Weather Map New forecast layout! Learn more

10-Day Weather Forecast

Advertisements
Track Severe Weather on mobile